createdAt,value
2022-07-28T00:01:33.098Z,98073.19
2022-07-28T00:06:34.915Z,98078.53
2022-07-28T00:11:36.730Z,98078.69
2022-07-28T00:16:52.545Z,98073.72
2022-07-28T00:21:54.431Z,98074.72
2022-07-28T00:26:56.317Z,98065.78
2022-07-28T00:31:58.216Z,98063.16
2022-07-28T00:37:00.062Z,98063.13
2022-07-28T00:42:09.168Z,98061.47
2022-07-28T00:47:11.953Z,98058.88
2022-07-28T00:52:16.270Z,98054.97
2022-07-28T00:57:18.175Z,98054.59
2022-07-28T01:02:20.505Z,98053.13
2022-07-28T01:08:00.817Z,98049.81
2022-07-28T01:13:16.166Z,98051.25
2022-07-28T01:18:26.137Z,98045.13
2022-07-28T01:23:33.977Z,98033.44
2022-07-28T01:28:50.992Z,98034.81
2022-07-28T01:33:59.838Z,98042.94
2022-07-28T01:39:02.373Z,98041.31
2022-07-28T01:44:10.629Z,98040.97
2022-07-28T01:49:14.575Z,98043.50
2022-07-28T01:54:18.426Z,98043.97
2022-07-28T01:59:23.543Z,98047.81
2022-07-28T02:04:26.901Z,98055.84
2022-07-28T02:09:30.542Z,98045.94
2022-07-28T02:14:36.426Z,98053.41
2022-07-28T02:19:42.646Z,98049.53
2022-07-28T02:24:47.139Z,98046.84
2022-07-28T02:29:52.588Z,98044.53
2022-07-28T02:35:00.090Z,98041.09
2022-07-28T02:40:03.421Z,98049.31
2022-07-28T02:45:08.277Z,98044.03
2022-07-28T02:50:11.286Z,98040.81
2022-07-28T02:55:15.674Z,98046.06
2022-07-28T03:00:18.391Z,98050.84
2022-07-28T03:05:20.891Z,98045.66
2022-07-28T03:10:32.984Z,98044.34
2022-07-28T03:15:37.618Z,98047.38
2022-07-28T03:20:39.437Z,98047.50
2022-07-28T03:25:46.637Z,98053.81
2022-07-28T03:30:56.026Z,98049.06
2022-07-28T03:36:02.813Z,98066.22
2022-07-28T03:41:09.620Z,98069.53
2022-07-28T03:46:13.629Z,98069.41
2022-07-28T03:51:15.621Z,98066.22
2022-07-28T03:56:17.465Z,98067.41
2022-07-28T04:01:19.368Z,98068.50
2022-07-28T04:06:21.290Z,98073.13
2022-07-28T04:11:23.331Z,98083.69
2022-07-28T04:16:25.230Z,98076.66
2022-07-28T04:21:27.432Z,98074.69
2022-07-28T04:26:29.293Z,98069.22
2022-07-28T04:31:31.461Z,98060.28
2022-07-28T04:36:33.765Z,98056.91
2022-07-28T04:41:36.459Z,98069.88
2022-07-28T04:46:38.359Z,98075.81
2022-07-28T04:51:40.244Z,98062.69
2022-07-28T04:56:42.062Z,98064.22
2022-07-28T05:01:43.986Z,98063.91
2022-07-28T05:06:45.912Z,98071.09
2022-07-28T05:11:48.062Z,98064.41
2022-07-28T05:16:49.960Z,98065.25
2022-07-28T05:21:51.833Z,98059.38
2022-07-28T05:26:53.651Z,98061.41
2022-07-28T05:31:55.641Z,98063.31
2022-07-28T05:36:57.485Z,98062.00
2022-07-28T05:42:02.363Z,98066.59
2022-07-28T05:47:04.237Z,98066.91
2022-07-28T05:52:06.231Z,98069.53
2022-07-28T05:57:08.073Z,98076.97
2022-07-28T06:02:17.343Z,98083.41
2022-07-28T06:07:19.182Z,98093.66
2022-07-28T06:12:21.058Z,98091.66
2022-07-28T06:17:22.947Z,98075.41
2022-07-28T06:22:24.822Z,98071.44
2022-07-28T06:27:26.680Z,98065.56
2022-07-28T06:32:28.535Z,98077.69
2022-07-28T06:37:30.473Z,98076.31
2022-07-28T06:42:32.291Z,98086.69
2022-07-28T06:47:34.141Z,98080.72
2022-07-28T06:52:37.137Z,98088.41
2022-07-28T06:57:38.994Z,98088.41
2022-07-28T07:02:41.989Z,98076.88
2022-07-28T07:07:43.950Z,98077.50
2022-07-28T07:12:46.029Z,98076.66
2022-07-28T07:17:47.842Z,98074.63
2022-07-28T07:22:50.381Z,98077.59
2022-07-28T07:27:52.235Z,98078.72
2022-07-28T07:32:54.169Z,98076.31
2022-07-28T07:37:56.213Z,98081.44
2022-07-28T07:42:58.015Z,98079.53
2022-07-28T07:48:00.653Z,98075.81
2022-07-28T07:53:02.481Z,98073.38
2022-07-28T07:58:04.490Z,98077.91
2022-07-28T08:03:11.191Z,98074.34
2022-07-28T08:08:13.386Z,98062.41
2022-07-28T08:13:15.211Z,98072.94
2022-07-28T08:18:17.065Z,98073.31
2022-07-28T08:23:24.319Z,98072.56
2022-07-28T08:28:28.033Z,98066.75
2022-07-28T08:33:30.357Z,98070.31
2022-07-28T08:38:32.200Z,98065.09
2022-07-28T08:43:38.254Z,98062.44
2022-07-28T08:48:40.411Z,98061.81
2022-07-28T08:53:43.543Z,98059.72
2022-07-28T08:58:45.408Z,98068.06
2022-07-28T09:03:47.820Z,98059.31
2022-07-28T09:08:49.648Z,98054.56
2022-07-28T09:13:54.028Z,98055.06
2022-07-28T09:18:57.339Z,98048.44
2022-07-28T09:24:00.713Z,98040.25
2022-07-28T09:29:04.290Z,98044.75
2022-07-28T09:34:08.417Z,98048.00
2022-07-28T09:39:10.651Z,98052.66
2022-07-28T09:44:20.048Z,98040.91
2022-07-28T09:49:28.076Z,98047.91
2022-07-28T09:54:30.676Z,98038.88
2022-07-28T09:59:43.566Z,98041.47
2022-07-28T10:04:52.959Z,98041.50
2022-07-28T10:09:59.658Z,98032.09
2022-07-28T10:15:34.400Z,98016.50
2022-07-28T10:20:37.266Z,98024.81
2022-07-28T10:25:40.662Z,98020.53
2022-07-28T10:30:43.052Z,98016.22
2022-07-28T10:35:55.234Z,98006.31
2022-07-28T10:41:01.488Z,98012.53
2022-07-28T10:46:07.362Z,98012.16
2022-07-28T10:51:11.557Z,98000.91
2022-07-28T10:56:18.875Z,98004.25
2022-07-28T11:01:54.162Z,97998.56
2022-07-28T11:07:10.653Z,97990.84
2022-07-28T11:12:15.379Z,97987.66
2022-07-28T11:17:24.654Z,97981.31
2022-07-28T11:22:35.629Z,97987.16
2022-07-28T11:27:40.931Z,97993.75
2022-07-28T11:32:55.026Z,97985.38
2022-07-28T11:38:03.243Z,97989.09
2022-07-28T11:43:36.661Z,97985.41
2022-07-28T11:48:43.654Z,97987.22
2022-07-28T11:53:53.236Z,97980.84
2022-07-28T11:58:58.833Z,97968.97
2022-07-28T12:04:01.317Z,97976.09
2022-07-28T12:09:05.039Z,97969.44
2022-07-28T12:14:16.283Z,97975.41
2022-07-28T12:19:20.011Z,97970.63
2022-07-28T12:24:30.148Z,97949.78
2022-07-28T12:29:35.732Z,97941.78
2022-07-28T12:34:40.623Z,97944.69
2022-07-28T12:39:44.346Z,97941.91
2022-07-28T12:44:48.670Z,97924.53
2022-07-28T12:50:14.715Z,97926.53
2022-07-28T12:55:24.921Z,97933.75
2022-07-28T13:00:34.198Z,97936.31
2022-07-28T13:05:57.351Z,97926.78
2022-07-28T13:10:59.447Z,97922.88
2022-07-28T13:16:24.721Z,97923.91
2022-07-28T13:21:57.432Z,97901.75
2022-07-28T13:27:02.518Z,97911.06
2022-07-28T13:32:04.740Z,97917.78
2022-07-28T13:37:06.980Z,97898.19
2022-07-28T13:42:10.382Z,97897.91
2022-07-28T13:47:12.591Z,97896.97
2022-07-28T13:52:33.141Z,97901.25
2022-07-28T13:57:37.092Z,97890.06
2022-07-28T14:02:39.059Z,97880.81
2022-07-28T14:07:47.990Z,97878.75
2022-07-28T14:12:50.480Z,97877.00
2022-07-28T14:17:53.206Z,97872.06
2022-07-28T14:22:55.189Z,97867.00
2022-07-28T14:27:57.050Z,97859.59
2022-07-28T14:32:59.005Z,97861.69
2022-07-28T14:38:49.740Z,97850.25
2022-07-28T14:43:27.183Z,97845.53
2022-07-28T14:48:30.968Z,97846.56
2022-07-28T14:53:32.937Z,97857.97
2022-07-28T14:58:37.568Z,97845.91
2022-07-28T15:03:43.549Z,97848.22
2022-07-28T15:08:45.526Z,97835.41
2022-07-28T15:13:47.359Z,97828.75
2022-07-28T15:18:51.639Z,97829.94
2022-07-28T15:23:53.658Z,97829.50
2022-07-28T15:28:55.542Z,97821.03
2022-07-28T15:33:58.553Z,97818.78
2022-07-28T15:39:00.382Z,97816.38
2022-07-28T15:44:02.175Z,97810.13
2022-07-28T15:49:06.534Z,97811.88
2022-07-28T15:54:08.745Z,97807.09
2022-07-28T15:59:10.648Z,97804.34
2022-07-28T16:04:13.235Z,97800.59
2022-07-28T16:09:15.602Z,97796.41
2022-07-28T16:14:18.074Z,97781.56
2022-07-28T16:19:47.332Z,97782.59
2022-07-28T16:24:42.236Z,97786.69
2022-07-28T16:29:44.831Z,97801.34
2022-07-28T16:34:48.190Z,97800.31
2022-07-28T16:39:50.105Z,97793.38
2022-07-28T16:44:51.986Z,97790.19
2022-07-28T16:49:53.837Z,97800.31
2022-07-28T16:54:56.201Z,97791.00
2022-07-28T16:59:58.104Z,97794.69
2022-07-28T17:05:00.097Z,97787.81
2022-07-28T17:10:01.991Z,97801.34
2022-07-28T17:15:05.270Z,97794.88
2022-07-28T17:20:07.903Z,97797.97
2022-07-28T17:25:28.633Z,97795.03
2022-07-28T17:30:33.193Z,97806.13
2022-07-28T17:35:36.081Z,97802.78
2022-07-28T17:40:39.706Z,97809.09
2022-07-28T17:45:41.760Z,97804.56
2022-07-28T17:50:44.769Z,97803.34
2022-07-28T17:56:00.550Z,97808.34
2022-07-28T18:01:09.697Z,97809.75
2022-07-28T18:06:13.169Z,97811.38
2022-07-28T18:11:15.082Z,97813.00
2022-07-28T18:16:16.975Z,97821.53
2022-07-28T18:21:18.957Z,97814.31
2022-07-28T18:26:20.773Z,97807.28
2022-07-28T18:31:22.616Z,97811.47
2022-07-28T18:36:24.483Z,97808.06
2022-07-28T18:41:26.376Z,97819.78
2022-07-28T18:46:28.876Z,97812.28
2022-07-28T18:51:30.828Z,97816.38
2022-07-28T18:56:32.636Z,97821.03
2022-07-28T19:01:34.540Z,97834.13
2022-07-28T19:06:36.660Z,97831.22
2022-07-28T19:11:42.393Z,97842.34
2022-07-28T19:16:47.359Z,97835.97
2022-07-28T19:21:49.190Z,97845.09
2022-07-28T19:26:51.624Z,97852.63
2022-07-28T19:31:53.728Z,97863.72
2022-07-28T19:36:57.879Z,97860.34
2022-07-28T19:41:59.939Z,97867.09
2022-07-28T19:47:01.848Z,97869.63
2022-07-28T19:52:03.893Z,97872.50
2022-07-28T19:57:05.909Z,97876.38
2022-07-28T20:02:14.400Z,97873.81
2022-07-28T20:07:16.375Z,97878.91
2022-07-28T20:12:18.631Z,97870.88
2022-07-28T20:17:37.408Z,97871.63
2022-07-28T20:22:41.521Z,97870.56
2022-07-28T20:27:44.348Z,97872.31
2022-07-28T20:32:46.790Z,97868.94
2022-07-28T20:37:50.808Z,97880.78
2022-07-28T20:42:54.149Z,97884.88
2022-07-28T20:47:56.097Z,97879.28
2022-07-28T20:52:59.889Z,97885.97
2022-07-28T20:58:13.137Z,97881.38
2022-07-28T21:03:16.328Z,97874.78
2022-07-28T21:08:18.547Z,97894.56
2022-07-28T21:13:20.521Z,97889.53
2022-07-28T21:18:22.407Z,97895.56
2022-07-28T21:23:24.358Z,97892.53
2022-07-28T21:28:44.664Z,97888.50
2022-07-28T21:33:46.622Z,97901.19
2022-07-28T21:38:48.578Z,97895.94
2022-07-28T21:43:50.469Z,97897.91
2022-07-28T21:48:53.383Z,97902.75
2022-07-28T21:53:55.535Z,97908.72
2022-07-28T21:58:57.395Z,97922.00
2022-07-28T22:03:59.273Z,97927.84
2022-07-28T22:09:01.157Z,97932.06
2022-07-28T22:14:04.558Z,97932.25
2022-07-28T22:19:06.410Z,97923.16
2022-07-28T22:24:08.657Z,97918.28
2022-07-28T22:29:11.124Z,97930.94
2022-07-28T22:34:13.872Z,97916.88
2022-07-28T22:39:15.943Z,97927.34
2022-07-28T22:44:18.212Z,97935.97
2022-07-28T22:49:27.026Z,97935.56
2022-07-28T22:54:29.045Z,97924.06
2022-07-28T22:59:31.220Z,97930.91
2022-07-28T23:04:40.621Z,97934.97
2022-07-28T23:09:43.089Z,97934.75
2022-07-28T23:14:44.921Z,97935.41
2022-07-28T23:19:46.767Z,97943.81
2022-07-28T23:24:48.614Z,97936.66
2022-07-28T23:29:50.438Z,97940.56
2022-07-28T23:34:52.318Z,97941.53
2022-07-28T23:39:54.860Z,97943.72
2022-07-28T23:44:56.769Z,97926.44
2022-07-28T23:49:58.643Z,97923.63
2022-07-28T23:55:00.485Z,97920.00
